Time;durP1;ratioP1;P1;durP2;ratioP2;P2;SDS_P1;SDS_P2;PMS_P1;PMS_P2;Temp;Humidity;BMP_temperature;BMP_pressure;BME280_temperature;BME280_humidity;BME280_pressure;Samples;Min_cycle;Max_cycle;Signal;HPM_P1;HPM_P2
2022/07/08 00:01:40;;;;;;;10.30;2.80;;;;;13.80;102582.00;;;;10410843;28;20321;-77
2022/07/08 00:06:42;;;;;;;11.47;2.67;;;;;13.60;102581.00;;;;10451544;28;20206;-77
2022/07/08 00:11:44;;;;;;;7.20;2.30;;;;;13.40;102573.00;;;;10484967;28;20189;-77
2022/07/08 00:16:46;;;;;;;9.87;2.50;;;;;13.20;102580.00;;;;10468014;28;20231;-76
2022/07/08 00:21:49;;;;;;;8.60;2.70;;;;;12.90;102576.00;;;;10468219;28;20194;-76
2022/07/08 00:26:51;;;;;;;9.90;2.70;;;;;12.80;102579.00;;;;10483665;28;20263;-77
2022/07/08 00:31:53;;;;;;;8.57;2.50;;;;;12.60;102577.00;;;;10484079;28;20202;-77
2022/07/08 00:36:55;;;;;;;11.53;2.80;;;;;12.50;102571.00;;;;10467030;28;20247;-77
2022/07/08 00:41:58;;;;;;;6.77;2.37;;;;;12.40;102576.00;;;;10434609;28;20622;-76
2022/07/08 00:47:00;;;;;;;12.93;3.00;;;;;12.30;102578.00;;;;10483580;28;20201;-77
2022/07/08 00:52:03;;;;;;;10.63;2.63;;;;;12.20;102583.00;;;;10483206;28;20197;-77
2022/07/08 00:57:05;;;;;;;8.47;2.57;;;;;12.10;102584.00;;;;10483228;28;20644;-77
2022/07/08 01:02:08;;;;;;;11.63;3.27;;;;;12.00;102588.00;;;;10473491;28;20206;-76
2022/07/08 01:07:10;;;;;;;8.40;2.73;;;;;11.90;102591.00;;;;10457998;28;20306;-76
2022/07/08 01:12:12;;;;;;;8.30;3.20;;;;;11.80;102597.00;;;;10457949;28;20672;-76
2022/07/08 01:17:14;;;;;;;14.50;3.33;;;;;11.80;102600.00;;;;10423772;28;20240;-76
2022/07/08 01:22:16;;;;;;;9.83;3.13;;;;;11.80;102602.00;;;;10424400;28;20270;-76
2022/07/08 01:27:18;;;;;;;9.80;3.20;;;;;11.80;102597.00;;;;10407211;28;20573;-77
2022/07/08 01:32:20;;;;;;;9.97;3.20;;;;;11.80;102593.00;;;;10437493;28;20196;-76
2022/07/08 01:37:22;;;;;;;9.40;3.00;;;;;11.80;102594.00;;;;10464829;28;20251;-76
2022/07/08 01:42:24;;;;;;;8.40;2.70;;;;;11.70;102601.00;;;;10499163;28;20281;-76
2022/07/08 01:47:26;;;;;;;10.67;3.07;;;;;11.60;102591.00;;;;10464637;28;20209;-77
2022/07/08 01:52:28;;;;;;;10.93;3.00;;;;;11.40;102589.00;;;;10447641;28;20201;-76
2022/07/08 01:57:31;;;;;;;11.17;3.40;;;;;11.30;102586.00;;;;10480613;28;20614;-77
2022/07/08 02:02:33;;;;;;;13.30;3.20;;;;;11.20;102585.00;;;;10447277;28;20210;-76
2022/07/08 02:07:35;;;;;;;13.33;3.33;;;;;11.10;102596.00;;;;10463419;28;20720;-77
2022/07/08 02:12:37;;;;;;;11.37;3.23;;;;;11.10;102585.00;;;;10464214;28;20178;-76
2022/07/08 02:17:43;;;;;;;6.77;2.93;;;;;11.00;102589.00;;;;10446690;28;20672;-76
2022/07/08 02:22:45;;;;;;;12.17;4.00;;;;;10.90;102595.00;;;;10479525;28;20199;-76
2022/07/08 02:27:47;;;;;;;14.87;3.67;;;;;10.90;102594.00;;;;10461839;28;20219;-77
2022/07/08 02:32:49;;;;;;;13.13;3.73;;;;;10.80;102595.00;;;;10463246;28;20205;-76
2022/07/08 02:37:51;;;;;;;8.13;3.63;;;;;10.80;102599.00;;;;10462296;28;20637;-76
2022/07/08 02:42:53;;;;;;;10.80;4.03;;;;;10.80;102607.00;;;;10461525;28;20225;-76
2022/07/08 02:47:55;;;;;;;14.00;3.60;;;;;10.80;102605.00;;;;10478381;28;20288;-76
2022/07/08 02:52:56;;;;;;;7.93;3.57;;;;;10.80;102606.00;;;;10478415;28;20194;-76
2022/07/08 02:57:58;;;;;;;16.30;4.27;;;;;10.80;102609.00;;;;10494612;28;20201;-76
2022/07/08 03:03:00;;;;;;;15.47;4.00;;;;;10.80;102601.00;;;;10461866;28;20197;-76
2022/07/08 03:08:02;;;;;;;10.63;4.17;;;;;10.70;102593.00;;;;10444914;28;20263;-76
2022/07/08 03:13:05;;;;;;;16.57;5.60;;;;;10.60;102595.00;;;;10461213;28;20185;-76
2022/07/08 03:18:07;;;;;;;8.50;4.40;;;;;10.60;102604.00;;;;10461272;28;20614;-76
2022/07/08 03:23:09;;;;;;;12.03;5.13;;;;;10.60;102604.00;;;;10445138;28;20189;-76
2022/07/08 03:28:11;;;;;;;13.70;4.77;;;;;10.50;102603.00;;;;10460641;28;20271;-76
2022/07/08 03:33:13;;;;;;;12.67;4.60;;;;;10.50;102601.00;;;;10477329;28;20209;-76
2022/07/08 03:38:16;;;;;;;12.40;4.87;;;;;10.50;102611.00;;;;10467941;28;20189;-76
2022/07/08 03:43:18;;;;;;;18.47;5.90;;;;;10.40;102609.00;;;;10475855;28;20197;-76
2022/07/08 03:48:21;;;;;;;11.07;5.30;;;;;10.40;102619.00;;;;10459267;28;20289;-77
2022/07/08 03:53:23;;;;;;;17.93;6.07;;;;;10.40;102616.00;;;;10453605;28;20285;-77
2022/07/08 03:58:25;;;;;;;18.40;6.53;;;;;10.50;102622.00;;;;10434161;28;20223;-77
2022/07/08 04:03:29;;;;;;;14.30;6.60;;;;;10.50;102625.00;;;;10455600;28;20193;-78
2022/07/08 04:08:30;;;;;;;16.87;7.40;;;;;10.60;102619.00;;;;10475423;28;20561;-76
2022/07/08 04:13:34;;;;;;;18.70;7.30;;;;;10.70;102628.00;;;;10475405;28;20189;-77
2022/07/08 04:18:36;;;;;;;15.77;7.10;;;;;10.90;102624.00;;;;10475347;28;20640;-77
2022/07/08 04:23:40;;;;;;;11.67;6.53;;;;;11.20;102630.00;;;;10475447;28;20190;-77
2022/07/08 04:28:42;;;;;;;14.57;6.23;;;;;11.40;102642.00;;;;10459042;28;20214;-77
2022/07/08 04:33:43;;;;;;;14.17;5.93;;;;;11.70;102641.00;;;;10492124;28;20201;-77
2022/07/08 04:38:45;;;;;;;13.23;6.63;;;;;11.80;102634.00;;;;10459006;28;20189;-76
2022/07/08 04:43:48;;;;;;;15.90;6.57;;;;;12.00;102643.00;;;;10474575;28;20289;-76
2022/07/08 04:48:50;;;;;;;12.23;5.80;;;;;12.10;102642.00;;;;10472503;28;20288;-77
2022/07/08 04:53:52;;;;;;;16.87;5.80;;;;;12.30;102645.00;;;;10467627;28;20251;-76
2022/07/08 04:58:54;;;;;;;14.80;5.13;;;;;12.50;102642.00;;;;10451206;28;20251;-77
2022/07/08 05:03:56;;;;;;;16.50;5.13;;;;;12.80;102648.00;;;;10449624;28;20215;-77
2022/07/08 05:08:58;;;;;;;15.13;5.77;;;;;13.20;102635.00;;;;10451502;28;20731;-77
2022/07/08 05:14:00;;;;;;;14.47;5.87;;;;;13.70;102630.00;;;;10468944;28;20182;-76
2022/07/08 05:19:04;;;;;;;16.57;4.60;;;;;14.10;102639.00;;;;10451467;28;20190;-77
2022/07/08 05:24:07;;;;;;;15.90;4.77;;;;;14.50;102643.00;;;;10484509;28;20601;-76
2022/07/08 05:29:09;;;;;;;12.43;4.10;;;;;15.10;102655.00;;;;10467528;28;20231;-77
2022/07/08 05:34:11;;;;;;;16.90;4.27;;;;;15.50;102656.00;;;;10467621;28;20713;-77
2022/07/08 05:39:13;;;;;;;10.07;3.93;;;;;16.00;102661.00;;;;10501922;28;20591;-77
2022/07/08 05:44:15;;;;;;;16.47;3.83;;;;;16.40;102663.00;;;;10483482;28;20178;-76
2022/07/08 05:49:17;;;;;;;13.82;3.75;;;;;17.10;102659.00;;;;10450302;28;20300;-77
2022/07/08 05:54:19;;;;;;;11.20;3.38;;;;;17.40;102660.00;;;;10421141;28;20236;-77
2022/07/08 05:59:21;;;;;;;11.93;3.22;;;;;17.40;102671.00;;;;10425410;28;20774;-77
2022/07/08 06:04:23;;;;;;;14.30;3.40;;;;;17.60;102672.00;;;;10441723;28;20202;-77
2022/07/08 06:09:25;;;;;;;8.90;3.28;;;;;17.70;102666.00;;;;10392463;28;20574;-77
2022/07/08 06:14:27;;;;;;;12.30;3.00;;;;;17.90;102678.00;;;;10409006;28;20218;-77
2022/07/08 06:19:29;;;;;;;12.07;2.97;;;;;18.00;102686.00;;;;10441417;28;20182;-78
2022/07/08 06:24:31;;;;;;;12.10;2.70;;;;;18.30;102688.00;;;;10408005;28;20202;-77
2022/07/08 06:29:33;;;;;;;10.15;2.60;;;;;18.70;102699.00;;;;10440357;28;20752;-77
2022/07/08 06:34:35;;;;;;;10.60;2.70;;;;;19.30;102677.00;;;;10472473;28;20575;-77
2022/07/08 06:39:37;;;;;;;8.07;2.58;;;;;19.90;102684.00;;;;10481405;28;20694;-77
2022/07/08 06:44:39;;;;;;;10.60;2.33;;;;;20.60;102695.00;;;;10464272;28;20185;-77
2022/07/08 06:49:41;;;;;;;10.88;2.63;;;;;20.80;102694.00;;;;10447563;28;20241;-77
2022/07/08 06:54:44;;;;;;;8.15;2.03;;;;;20.50;102696.00;;;;10447461;28;20281;-77
2022/07/08 06:59:46;;;;;;;9.73;2.25;;;;;20.30;102700.00;;;;10422939;28;20203;-77
2022/07/08 07:05:09;;;;;;;9.30;2.22;;;;;21.10;102692.00;;;;10442284;28;20200;-77
2022/07/08 07:10:11;;;;;;;9.50;2.70;;;;;21.40;102695.00;;;;10447197;28;20213;-77
2022/07/08 07:15:13;;;;;;;14.30;2.83;;;;;21.60;102702.00;;;;10463095;28;20193;-77
2022/07/08 07:20:15;;;;;;;8.85;1.80;;;;;22.30;102701.00;;;;10430870;28;20572;-77
2022/07/08 07:25:17;;;;;;;8.13;2.10;;;;;21.80;102702.00;;;;10430295;28;20201;-77
2022/07/08 07:30:22;;;;;;;8.73;2.03;;;;;21.50;102704.00;;;;10446502;28;20263;-77
2022/07/08 07:35:24;;;;;;;6.80;1.70;;;;;21.80;102701.00;;;;10424659;28;20657;-77
2022/07/08 07:40:26;;;;;;;8.90;2.10;;;;;22.30;102686.00;;;;10456006;28;20206;-75
2022/07/08 07:45:28;;;;;;;9.07;2.10;;;;;23.40;102691.00;;;;10420119;28;20252;-75
2022/07/08 07:50:30;;;;;;;9.27;2.08;;;;;23.30;102693.00;;;;10435915;28;20198;-75
2022/07/08 07:55:32;;;;;;;7.32;2.03;;;;;23.50;102700.00;;;;10459573;28;20201;-75
2022/07/08 08:00:34;;;;;;;9.23;2.17;;;;;24.40;102698.00;;;;10460883;28;20206;-75
2022/07/08 08:05:36;;;;;;;7.88;2.58;;;;;25.10;102705.00;;;;10476855;28;20193;-75
2022/07/08 08:10:38;;;;;;;8.27;2.50;;;;;25.30;102704.00;;;;10444496;28;20276;-75
2022/07/08 08:15:40;;;;;;;7.13;1.90;;;;;25.60;102709.00;;;;10460326;28;20194;-76
2022/07/08 08:20:42;;;;;;;9.45;2.63;;;;;25.80;102710.00;;;;10476677;28;20251;-75
2022/07/08 08:25:44;;;;;;;7.30;2.00;;;;;26.00;102716.00;;;;10447110;28;20204;-75
2022/07/08 08:30:46;;;;;;;7.72;2.17;;;;;26.40;102705.00;;;;10450170;28;20296;-76
2022/07/08 08:35:48;;;;;;;9.25;2.28;;;;;26.40;102700.00;;;;10442984;28;20182;-75
2022/07/08 08:40:57;;;;;;;9.68;2.08;;;;;25.90;102695.00;;;;10443057;28;20633;-75
2022/07/08 08:45:59;;;;;;;9.70;1.92;;;;;26.30;102695.00;;;;10441871;28;20186;-75
2022/07/08 08:51:03;;;;;;;10.85;2.50;;;;;26.20;102689.00;;;;10441869;28;20561;-75
2022/07/08 08:56:08;;;;;;;7.70;1.80;;;;;27.00;102684.00;;;;10483165;28;20247;-75
2022/07/08 09:01:10;;;;;;;6.97;1.98;;;;;27.00;102683.00;;;;10464188;28;20225;-76
2022/07/08 09:06:12;;;;;;;10.88;1.95;;;;;27.50;102683.00;;;;10458895;28;20187;-75
2022/07/08 09:11:17;;;;;;;7.60;1.80;;;;;28.20;102682.00;;;;10458751;28;20632;-75
2022/07/08 09:16:19;;;;;;;8.13;1.75;;;;;28.60;102681.00;;;;10458370;28;20231;-75
2022/07/08 09:21:27;;;;;;;5.00;1.40;;;;;28.80;102678.00;;;;10440412;28;20186;-75
2022/07/08 09:26:29;;;;;;;8.38;1.75;;;;;27.70;102674.00;;;;10473618;28;20304;-75
2022/07/08 09:31:34;;;;;;;4.00;1.48;;;;;28.50;102674.00;;;;10448970;28;20941;-75
2022/07/08 09:36:46;;;;;;;7.15;1.90;;;;;29.00;102668.00;;;;10457970;28;20653;-75
2022/07/08 09:41:48;;;;;;;8.35;2.30;;;;;29.40;102669.00;;;;10440088;28;20208;-74
2022/07/08 09:46:50;;;;;;;6.95;1.88;;;;;29.40;102665.00;;;;10390748;28;20217;-75
2022/07/08 09:51:53;;;;;;;5.18;1.67;;;;;30.00;102660.00;;;;10456484;28;20694;-75
2022/07/08 09:57:02;;;;;;;8.18;2.03;;;;;29.90;102664.00;;;;10423331;28;20592;-75
2022/07/08 10:02:05;;;;;;;5.75;1.90;;;;;29.00;102660.00;;;;10422762;28;20225;-75
2022/07/08 10:07:07;;;;;;;5.47;2.05;;;;;29.40;102659.00;;;;10422713;28;20202;-75
2022/07/08 10:12:16;;;;;;;10.40;2.35;;;;;30.40;102662.00;;;;10406268;28;20286;-75
2022/07/08 10:17:19;;;;;;;5.57;1.75;;;;;30.70;102664.00;;;;10456499;28;20187;-75
2022/07/08 10:22:22;;;;;;;5.53;2.17;;;;;31.00;102660.00;;;;10421815;28;20198;-75
2022/07/08 10:27:24;;;;;;;7.35;1.92;;;;;30.50;102664.00;;;;10421172;28;20699;-75
2022/07/08 10:32:27;;;;;;;5.65;1.77;;;;;30.40;102662.00;;;;10437950;28;20190;-74
2022/07/08 10:37:59;;;;;;;6.47;1.70;;;;;30.50;102660.00;;;;10420961;28;20186;-75
2022/07/08 10:43:06;;;;;;;8.15;1.80;;;;;30.10;102659.00;;;;10405536;28;20190;-75
2022/07/08 10:48:08;;;;;;;5.35;2.13;;;;;30.10;102657.00;;;;10452971;28;20197;-75
2022/07/08 10:53:10;;;;;;;7.38;1.90;;;;;30.60;102657.00;;;;10436835;28;20201;-74
2022/07/08 10:58:12;;;;;;;8.55;2.08;;;;;30.80;102667.00;;;;10436846;28;20712;-75
2022/07/08 11:03:13;;;;;;;8.93;2.15;;;;;31.00;102657.00;;;;10439328;28;20206;-75
2022/07/08 11:08:23;;;;;;;3.40;1.77;;;;;32.00;102648.00;;;;10404487;28;20214;-74
2022/07/08 11:13:26;;;;;;;6.75;2.47;;;;;31.40;102658.00;;;;10419986;28;20183;-75
2022/07/08 11:18:29;;;;;;;7.35;2.00;;;;;30.50;102647.00;;;;10420179;28;20262;-75
2022/07/08 11:23:31;;;;;;;4.45;1.65;;;;;30.90;102644.00;;;;10453107;28;20186;-74
2022/07/08 11:28:38;;;;;;;10.68;2.70;;;;;31.20;102645.00;;;;10452506;28;20268;-75
2022/07/08 11:33:42;;;;;;;6.07;2.00;;;;;31.10;102652.00;;;;10436080;28;20214;-75
2022/07/08 11:38:45;;;;;;;5.43;2.08;;;;;31.20;102635.00;;;;10419704;28;20191;-75
2022/07/08 11:43:49;;;;;;;6.38;2.28;;;;;32.50;102647.00;;;;10452677;28;20204;-75
2022/07/08 11:48:51;;;;;;;7.38;1.95;;;;;33.30;102648.00;;;;10453381;28;20241;-75
2022/07/08 11:53:53;;;;;;;9.85;2.38;;;;;33.60;102641.00;;;;10462350;28;20182;-75
2022/07/08 11:58:55;;;;;;;8.88;2.30;;;;;33.60;102635.00;;;;10446119;28;20300;-75
2022/07/08 12:03:58;;;;;;;13.30;2.40;;;;;33.40;102629.00;;;;10503249;28;20861;-75
2022/07/08 12:09:09;;;;;;;7.40;2.00;;;;;33.50;102622.00;;;;10451807;28;20266;-75
2022/07/08 12:14:12;;;;;;;6.80;1.85;;;;;33.30;102628.00;;;;10451625;28;20204;-75
2022/07/08 12:19:31;;;;;;;6.22;2.00;;;;;33.30;102620.00;;;;10451884;28;20184;-76
2022/07/08 12:24:39;;;;;;;5.88;2.25;;;;;32.50;102615.00;;;;10484247;28;20246;-75
2022/07/08 12:29:41;;;;;;;12.73;2.25;;;;;32.30;102613.00;;;;10484225;28;20688;-76
2022/07/08 12:34:51;;;;;;;6.53;1.90;;;;;32.70;102600.00;;;;10433810;28;20251;-75
2022/07/08 12:39:53;;;;;;;6.70;2.05;;;;;32.40;102589.00;;;;10409429;28;20194;-75
2022/07/08 12:44:55;;;;;;;5.78;2.13;;;;;31.80;102603.00;;;;10425944;28;20274;-75
2022/07/08 12:49:57;;;;;;;5.22;1.65;;;;;31.90;102607.00;;;;10425759;28;20640;-75
2022/07/08 12:54:59;;;;;;;7.40;2.00;;;;;31.30;102604.00;;;;10444669;28;20189;-75
2022/07/08 13:00:01;;;;;;;7.45;2.03;;;;;32.20;102595.00;;;;10500808;28;20627;-75
2022/07/08 13:05:04;;;;;;;6.05;1.88;;;;;32.10;102592.00;;;;10465797;28;20202;-75
2022/07/08 13:10:07;;;;;;;3.35;1.55;;;;;32.00;102592.00;;;;10482120;28;20285;-76
2022/07/08 13:15:10;;;;;;;4.07;1.65;;;;;32.20;102606.00;;;;10465443;28;20194;-75
2022/07/08 13:20:14;;;;;;;5.30;1.60;;;;;33.10;102602.00;;;;10432817;28;20189;-75
2022/07/08 13:25:16;;;;;;;5.63;2.28;;;;;33.00;102603.00;;;;10448855;28;20190;-75
2022/07/08 13:30:18;;;;;;;5.07;1.42;;;;;32.90;102585.00;;;;10481217;28;20683;-75
2022/07/08 13:35:20;;;;;;;6.93;1.90;;;;;33.10;102581.00;;;;10448558;28;20545;-76
2022/07/08 13:40:22;;;;;;;3.78;1.58;;;;;33.30;102577.00;;;;10465247;28;20178;-75
2022/07/08 13:45:24;;;;;;;5.18;1.65;;;;;32.40;102578.00;;;;10464511;28;20193;-75
2022/07/08 13:50:26;;;;;;;5.57;1.50;;;;;31.40;102566.00;;;;10447969;28;20206;-75
2022/07/08 13:55:28;;;;;;;5.80;1.88;;;;;31.10;102560.00;;;;10457027;28;20273;-75
2022/07/08 14:00:30;;;;;;;2.22;1.13;;;;;30.80;102570.00;;;;10422780;28;20264;-76
2022/07/08 14:05:32;;;;;;;3.60;1.67;;;;;30.80;102554.00;;;;10438133;28;20200;-76
2022/07/08 14:10:34;;;;;;;5.70;1.90;;;;;32.20;102552.00;;;;10422347;28;20240;-76
2022/07/08 14:15:37;;;;;;;5.47;1.33;;;;;30.90;102561.00;;;;10438872;28;20233;-76
2022/07/08 14:20:39;;;;;;;4.07;1.70;;;;;29.70;102555.00;;;;10438480;28;20270;-76
2022/07/08 14:25:41;;;;;;;9.00;1.70;;;;;35.10;102542.00;;;;10438871;28;20186;-76
2022/07/08 14:30:43;;;;;;;5.38;1.60;;;;;37.00;102557.00;;;;10438126;28;20295;-76
2022/07/08 14:35:51;;;;;;;4.50;1.48;;;;;34.40;102538.00;;;;10438307;28;20683;-75
2022/07/08 14:40:53;;;;;;;3.72;1.38;;;;;38.40;102547.00;;;;10421482;28;20272;-76
2022/07/08 14:45:55;;;;;;;2.88;1.30;;;;;34.80;102560.00;;;;10437581;28;20569;-76
2022/07/08 14:50:57;;;;;;;2.53;1.50;;;;;33.10;102545.00;;;;10404547;28;20631;-75
2022/07/08 14:55:58;;;;;;;5.25;1.63;;;;;34.20;102527.00;;;;10407377;28;20683;-75
2022/07/08 15:01:01;;;;;;;5.28;1.40;;;;;38.20;102526.00;;;;10455710;28;20232;-75
2022/07/08 15:06:06;;;;;;;4.32;1.42;;;;;38.20;102535.00;;;;10404402;28;20248;-75
2022/07/08 15:11:08;;;;;;;6.05;1.50;;;;;39.20;102526.00;;;;10420326;28;20210;-75
2022/07/08 15:16:10;;;;;;;3.65;1.33;;;;;40.20;102528.00;;;;10387631;28;20197;-76
2022/07/08 15:21:12;;;;;;;2.65;1.20;;;;;40.40;102518.00;;;;10437460;28;20178;-76
2022/07/08 15:26:14;;;;;;;4.38;1.33;;;;;41.60;102514.00;;;;10454060;28;20198;-76
2022/07/08 15:31:17;;;;;;;2.90;1.13;;;;;41.00;102508.00;;;;10403138;28;20264;-76
2022/07/08 15:36:19;;;;;;;4.32;1.50;;;;;42.00;102502.00;;;;10402947;28;20201;-76
2022/07/08 15:41:25;;;;;;;3.95;1.30;;;;;40.00;102511.00;;;;10419529;28;20185;-76
2022/07/08 15:46:28;;;;;;;4.32;1.27;;;;;36.10;102503.00;;;;10404285;28;20214;-76
2022/07/08 15:51:31;;;;;;;4.30;1.40;;;;;35.10;102491.00;;;;10404094;28;20206;-76
2022/07/08 15:56:33;;;;;;;3.10;1.30;;;;;33.60;102489.00;;;;10487057;28;20186;-76
2022/07/08 16:01:35;;;;;;;3.40;1.00;;;;;32.10;102491.00;;;;10459069;28;20679;-76
2022/07/08 16:06:37;;;;;;;4.30;1.20;;;;;31.60;102495.00;;;;10477189;28;20557;-75
2022/07/08 16:11:40;;;;;;;3.80;1.20;;;;;29.70;102489.00;;;;10476988;28;20205;-76
2022/07/08 16:16:42;;;;;;;2.22;1.10;;;;;28.50;102489.00;;;;10444368;28;20186;-76
2022/07/08 16:21:45;;;;;;;4.00;1.10;;;;;28.20;102483.00;;;;10477006;28;20235;-76
2022/07/08 16:26:47;;;;;;;2.40;1.10;;;;;27.70;102475.00;;;;10426934;28;20310;-76
2022/07/08 16:31:49;;;;;;;2.25;0.90;;;;;27.30;102469.00;;;;10459493;28;20660;-76
2022/07/08 16:36:52;;;;;;;2.47;1.10;;;;;27.40;102469.00;;;;10460062;28;20289;-76
2022/07/08 16:41:54;;;;;;;2.20;0.93;;;;;27.20;102465.00;;;;10443333;28;20292;-76
2022/07/08 16:46:56;;;;;;;4.60;0.93;;;;;26.90;102455.00;;;;10480336;28;20221;-77
2022/07/08 16:51:58;;;;;;;3.22;1.23;;;;;26.60;102459.00;;;;10451434;28;20308;-76
2022/07/08 16:57:03;;;;;;;1.85;0.90;;;;;26.70;102460.00;;;;10452063;28;20182;-77
2022/07/08 17:02:05;;;;;;;1.45;1.00;;;;;26.50;102458.00;;;;10435129;28;20210;-76
2022/07/08 17:07:07;;;;;;;3.60;0.88;;;;;26.50;102449.00;;;;10451052;28;20205;-76
2022/07/08 17:12:09;;;;;;;5.47;1.13;;;;;26.70;102446.00;;;;10484743;28;20230;-77
2022/07/08 17:17:12;;;;;;;2.10;0.80;;;;;26.70;102441.00;;;;10484422;28;20190;-77
2022/07/08 17:22:14;;;;;;;3.08;1.00;;;;;26.50;102444.00;;;;10451276;28;20292;-76
2022/07/08 17:27:16;;;;;;;2.22;0.70;;;;;26.10;102439.00;;;;10434555;28;20605;-77
2022/07/08 17:32:24;;;;;;;2.33;0.93;;;;;25.90;102434.00;;;;10437262;28;20198;-77
2022/07/08 17:37:26;;;;;;;3.28;0.90;;;;;25.80;102432.00;;;;10409185;28;20190;-76
2022/07/08 17:42:28;;;;;;;3.17;0.98;;;;;25.70;102425.00;;;;10425648;28;20194;-77
2022/07/08 17:47:30;;;;;;;1.67;0.85;;;;;25.40;102428.00;;;;10425584;28;20205;-77
2022/07/08 17:52:32;;;;;;;1.23;0.80;;;;;25.10;102423.00;;;;10426294;28;20189;-77
2022/07/08 17:57:34;;;;;;;1.20;1.10;;;;;25.00;102423.00;;;;10424027;28;20664;-77
2022/07/08 18:02:38;;;;;;;1.08;0.80;;;;;24.90;102424.00;;;;10409241;28;20649;-77
2022/07/08 18:07:40;;;;;;;0.90;0.55;;;;;24.80;102429.00;;;;10423927;28;20218;-77
2022/07/08 18:12:42;;;;;;;1.75;0.82;;;;;24.70;102426.00;;;;10460846;28;20187;-77
2022/07/08 18:17:44;;;;;;;2.45;1.05;;;;;24.60;102420.00;;;;10424689;28;20190;-77
2022/07/08 18:22:46;;;;;;;2.00;0.90;;;;;24.50;102425.00;;;;10426108;28;20201;-77
2022/07/08 18:27:48;;;;;;;1.73;0.80;;;;;24.40;102420.00;;;;10408859;28;20222;-77
2022/07/08 18:32:50;;;;;;;0.70;0.70;;;;;24.30;102416.00;;;;10409169;28;20292;-77
2022/07/08 18:37:52;;;;;;;2.00;1.27;;;;;24.10;102407.00;;;;10424833;28;20197;-77
2022/07/08 18:42:54;;;;;;;2.03;0.90;;;;;24.00;102412.00;;;;10442139;28;20190;-77
2022/07/08 18:47:56;;;;;;;1.00;0.75;;;;;23.80;102409.00;;;;10440827;28;20209;-77
2022/07/08 18:52:58;;;;;;;1.58;0.80;;;;;23.80;102407.00;;;;10424712;28;20676;-77
2022/07/08 18:58:00;;;;;;;1.42;0.82;;;;;23.60;102405.00;;;;10424100;28;20251;-77
2022/07/08 19:03:02;;;;;;;1.10;0.70;;;;;23.40;102411.00;;;;10440406;28;20580;-77
2022/07/08 19:08:05;;;;;;;1.02;0.90;;;;;23.20;102410.00;;;;10406734;28;20673;-77
2022/07/08 19:13:07;;;;;;;3.42;0.98;;;;;23.00;102420.00;;;;10423359;28;20280;-77
2022/07/08 19:18:09;;;;;;;0.80;0.80;;;;;22.90;102421.00;;;;10406138;28;20182;-77
2022/07/08 19:23:12;;;;;;;0.70;0.70;;;;;22.70;102421.00;;;;10421333;28;20186;-77
2022/07/08 19:28:14;;;;;;;1.40;0.70;;;;;22.40;102419.00;;;;10422053;28;20214;-77
2022/07/08 19:33:16;;;;;;;4.38;1.00;;;;;22.10;102421.00;;;;10405820;28;20289;-77
2022/07/08 19:38:19;;;;;;;3.55;1.05;;;;;21.80;102416.00;;;;10439102;28;20185;-77
2022/07/08 19:43:21;;;;;;;2.13;0.90;;;;;21.60;102423.00;;;;10406820;28;20185;-77
2022/07/08 19:48:23;;;;;;;2.10;1.00;;;;;21.40;102421.00;;;;10405797;28;20206;-77
2022/07/08 19:53:25;;;;;;;2.80;1.17;;;;;21.20;102439.00;;;;10413715;28;20207;-77
2022/07/08 19:58:28;;;;;;;3.05;1.10;;;;;21.10;102430.00;;;;10480160;28;20197;-77
2022/07/08 20:03:31;;;;;;;2.92;1.08;;;;;20.90;102434.00;;;;10459769;28;20197;-77
2022/07/08 20:08:33;;;;;;;1.85;1.20;;;;;20.70;102438.00;;;;10447693;28;20315;-77
2022/07/08 20:13:36;;;;;;;1.10;0.93;;;;;20.50;102442.00;;;;10480282;28;20247;-77
2022/07/08 20:18:38;;;;;;;1.20;0.95;;;;;20.40;102440.00;;;;10447239;28;20213;-77
2022/07/08 20:23:40;;;;;;;0.70;0.70;;;;;20.30;102443.00;;;;10454400;28;20664;-77
2022/07/08 20:28:42;;;;;;;4.40;1.00;;;;;20.10;102434.00;;;;10486813;28;20221;-77
2022/07/08 20:33:44;;;;;;;3.38;0.80;;;;;19.90;102436.00;;;;10470281;28;20193;-77
2022/07/08 20:38:45;;;;;;;2.60;1.02;;;;;19.80;102441.00;;;;10453977;28;20190;-77
2022/07/08 20:43:48;;;;;;;1.33;1.23;;;;;19.70;102450.00;;;;10504601;28;20189;-77
2022/07/08 20:48:50;;;;;;;1.48;0.85;;;;;19.50;102438.00;;;;10470108;28;20206;-77
2022/07/08 20:53:52;;;;;;;1.98;1.08;;;;;19.40;102441.00;;;;10485843;28;20178;-77
2022/07/08 20:58:54;;;;;;;2.08;1.17;;;;;19.30;102447.00;;;;10483446;28;20218;-77
2022/07/08 21:03:57;;;;;;;1.50;0.90;;;;;19.10;102434.00;;;;10409954;28;20644;-78
2022/07/08 21:08:59;;;;;;;3.50;1.10;;;;;19.10;102435.00;;;;10443141;28;20202;-77
2022/07/08 21:14:02;;;;;;;1.20;1.10;;;;;18.90;102436.00;;;;10493748;28;20201;-77
2022/07/08 21:19:03;;;;;;;2.78;1.10;;;;;18.80;102434.00;;;;10466428;28;20194;-77
2022/07/08 21:24:06;;;;;;;2.75;1.30;;;;;18.50;102424.00;;;;10482988;28;20194;-76
2022/07/08 21:29:08;;;;;;;1.30;1.10;;;;;18.30;102426.00;;;;10449194;28;20309;-77
2022/07/08 21:34:14;;;;;;;4.70;1.80;;;;;18.10;102415.00;;;;10467260;28;20202;-78
2022/07/08 21:39:16;;;;;;;1.67;1.38;;;;;18.00;102414.00;;;;10483752;28;20190;-78
2022/07/08 21:44:18;;;;;;;4.15;1.52;;;;;17.90;102419.00;;;;10465653;28;20194;-77
2022/07/08 21:49:20;;;;;;;3.67;2.03;;;;;17.90;102416.00;;;;10448462;28;21008;-76
2022/07/08 21:54:22;;;;;;;3.07;2.00;;;;;17.90;102419.00;;;;10451038;28;20717;-77
2022/07/08 21:59:24;;;;;;;5.70;3.60;;;;;17.80;102425.00;;;;10433320;28;20275;-76
2022/07/08 22:04:26;;;;;;;4.47;3.53;;;;;17.70;102421.00;;;;10431377;28;20225;-76
2022/07/08 22:09:28;;;;;;;8.50;6.40;;;;;17.60;102421.00;;;;10449305;28;20572;-78
2022/07/08 22:14:30;;;;;;;10.93;7.72;;;;;17.50;102426.00;;;;10466963;28;20197;-77
2022/07/08 22:19:36;;;;;;;2.30;1.65;;;;;17.40;102424.00;;;;10433583;28;20190;-78
2022/07/08 22:24:38;;;;;;;2.22;1.55;;;;;17.30;102432.00;;;;10449512;28;20225;-77
2022/07/08 22:29:40;;;;;;;6.15;1.70;;;;;17.10;102438.00;;;;10464147;28;20224;-77
2022/07/08 22:34:42;;;;;;;4.75;1.83;;;;;16.90;102421.00;;;;10424893;28;20206;-77
2022/07/08 22:39:44;;;;;;;3.80;1.93;;;;;16.80;102420.00;;;;10424481;28;20198;-77
2022/07/08 22:44:46;;;;;;;3.90;1.85;;;;;16.70;102401.00;;;;10390479;28;20202;-78
2022/07/08 22:49:48;;;;;;;3.80;2.10;;;;;16.60;102393.00;;;;10439459;28;20206;-78
2022/07/08 22:54:51;;;;;;;4.47;2.10;;;;;16.60;102398.00;;;;10443119;28;20197;-77
2022/07/08 22:59:53;;;;;;;5.67;2.33;;;;;16.60;102394.00;;;;10481268;28;20205;-78
2022/07/08 23:04:55;;;;;;;4.77;2.37;;;;;16.60;102397.00;;;;10464137;28;20228;-77
2022/07/08 23:09:57;;;;;;;5.50;2.85;;;;;16.60;102390.00;;;;10447668;28;20206;-77
2022/07/08 23:14:59;;;;;;;7.37;2.80;;;;;16.60;102397.00;;;;10463941;28;20627;-78
2022/07/08 23:20:02;;;;;;;4.77;2.20;;;;;16.60;102386.00;;;;10480515;28;20777;-77
2022/07/08 23:25:05;;;;;;;6.70;2.70;;;;;16.50;102399.00;;;;10497589;28;20648;-77
2022/07/08 23:30:07;;;;;;;4.97;3.00;;;;;16.50;102388.00;;;;10430756;28;20312;-78
2022/07/08 23:35:10;;;;;;;4.50;2.87;;;;;16.50;102389.00;;;;10426904;28;20197;-77
2022/07/08 23:40:12;;;;;;;6.13;3.30;;;;;16.40;102385.00;;;;10438337;28;20527;-77
2022/07/08 23:45:14;;;;;;;5.57;3.30;;;;;16.40;102383.00;;;;10422725;28;20198;-77
2022/07/08 23:50:16;;;;;;;4.43;3.03;;;;;16.30;102369.00;;;;10405205;28;20226;-78
2022/07/08 23:55:18;;;;;;;4.50;4.03;;;;;16.30;102383.00;;;;10442029;28;20198;-77
